Time;durP1;ratioP1;P1;durP2;ratioP2;P2;SDS_P1;SDS_P2;PMS_P1;PMS_P2;Temp;Humidity;BMP_temperature;BMP_pressure;BME280_temperature;BME280_humidity;BME280_pressure;Samples;Min_cycle;Max_cycle;Signal;HPM_P1;HPM_P2
2023/10/14 00:00:26;;;;;;;0.30;0.30;;;;;;;20.06;37.49;96153.31;29395;248;63007;-59
2023/10/14 00:00:58;;;;;;;0.30;0.30;;;;;;;20.08;37.94;96150.19;29395;237;63009;-70
2023/10/14 00:01:31;;;;;;;0.30;0.30;;;;;;;20.08;37.84;96151.00;29395;243;63005;-74
2023/10/14 00:02:15;;;;;;;0.30;0.30;;;;;;;20.08;37.97;96145.47;29394;239;64013;-57
2023/10/14 00:02:50;;;;;;;0.30;0.30;;;;;;;20.08;38.07;96139.97;29394;220;64009;-70
2023/10/14 00:03:27;;;;;;;0.37;0.37;;;;;;;20.08;38.37;96150.19;29395;311;63009;-74
2023/10/14 00:03:59;;;;;;;0.30;0.30;;;;;;;20.08;38.36;96150.19;29395;251;63016;-71
2023/10/14 00:04:30;;;;;;;0.30;0.30;;;;;;;20.09;38.51;96151.78;29395;202;63009;-72
2023/10/14 00:05:05;;;;;;;0.30;0.30;;;;;;;20.13;38.90;96151.81;29395;269;63004;-70
2023/10/14 00:05:36;;;;;;;0.30;0.30;;;;;;;20.14;38.60;96142.38;29394;197;64014;-59
2023/10/14 00:06:10;;;;;;;0.30;0.30;;;;;;;20.12;38.81;96142.75;29395;334;63005;-72
2023/10/14 00:06:42;;;;;;;0.30;0.30;;;;;;;20.12;38.63;96142.75;29395;237;63009;-59
2023/10/14 00:07:17;;;;;;;0.30;0.30;;;;;;;20.11;38.94;96143.91;29395;219;63005;-70
2023/10/14 00:07:52;;;;;;;0.30;0.30;;;;;;;20.12;39.03;96152.97;29394;222;64013;-68
2023/10/14 00:08:27;;;;;;;0.30;0.30;;;;;;;20.13;38.93;96146.28;29395;244;63005;-77
2023/10/14 00:09:07;;;;;;;0.30;0.30;;;;;;;20.12;38.93;96151.00;29395;197;63009;-74
2023/10/14 00:09:43;;;;;;;0.30;0.30;;;;;;;20.10;38.78;96139.56;29394;202;64009;-73
2023/10/14 00:10:16;;;;;;;0.30;0.30;;;;;;;20.08;39.05;96145.47;29395;231;63009;-73
2023/10/14 00:10:47;;;;;;;0.30;0.30;;;;;;;20.07;38.98;96160.41;29395;286;63008;-69
2023/10/14 00:11:21;;;;;;;0.30;0.30;;;;;;;20.06;39.07;96156.06;29395;215;63009;-69
2023/10/14 00:11:54;;;;;;;0.30;0.30;;;;;;;20.06;39.15;96150.56;29395;202;63004;-73
2023/10/14 00:12:28;;;;;;;0.30;0.30;;;;;;;20.07;39.21;96156.88;29394;215;64013;-60
2023/10/14 00:12:59;;;;;;;0.37;0.37;;;;;;;20.05;39.75;96160.00;29395;248;63004;-58
2023/10/14 00:13:35;;;;;;;0.32;0.32;;;;;;;20.07;39.81;96168.69;29395;221;63009;-69
2023/10/14 00:14:14;;;;;;;0.30;0.30;;;;;;;20.12;40.66;96155.72;29395;204;63005;-70
2023/10/14 00:14:46;;;;;;;0.32;0.32;;;;;;;20.16;40.55;96162.06;29395;283;63024;-68
2023/10/14 00:15:19;;;;;;;0.30;0.30;;;;;;;20.16;40.28;96159.31;29395;225;63005;-68
2023/10/14 00:15:52;;;;;;;0.30;0.30;;;;;;;20.16;39.85;96154.59;29394;212;64013;-57
2023/10/14 00:16:35;;;;;;;0.30;0.30;;;;;;;20.19;40.34;96156.62;29394;249;64009;-69
2023/10/14 00:17:11;;;;;;;0.30;0.30;;;;;;;20.23;40.58;96162.19;29395;204;63009;-57
2023/10/14 00:17:43;;;;;;;0.30;0.30;;;;;;;20.23;40.32;96159.44;29395;298;63004;-70
2023/10/14 00:18:14;;;;;;;0.30;0.30;;;;;;;20.23;40.61;96159.44;29395;296;63009;-69
2023/10/14 00:18:48;;;;;;;0.30;0.30;;;;;;;20.24;40.46;96169.28;29395;307;63004;-71
2023/10/14 00:19:24;;;;;;;0.40;0.40;;;;;;;20.24;40.49;96158.25;29395;273;63009;-74
2023/10/14 00:20:00;;;;;;;0.73;0.73;;;;;;;20.30;41.18;96167.78;29395;206;63011;-68
2023/10/14 00:20:36;;;;;;;0.30;0.30;;;;;;;20.33;40.93;96167.06;29395;198;63008;-70
2023/10/14 00:21:11;;;;;;;0.40;0.40;;;;;;;20.31;41.13;96163.88;29394;197;64009;-68
2023/10/14 00:21:42;;;;;;;0.30;0.30;;;;;;;20.30;41.03;96162.28;29395;293;63009;-71
2023/10/14 00:22:14;;;;;;;0.30;0.30;;;;;;;20.32;41.44;96171.78;29395;327;63005;-67
2023/10/14 00:22:45;;;;;;;0.30;0.30;;;;;;;20.31;41.24;96180.41;29395;241;63009;-58
2023/10/14 00:23:16;;;;;;;0.80;0.80;;;;;;;20.37;43.04;96174.22;29395;271;63005;-66
2023/10/14 00:23:47;;;;;;;0.30;0.30;;;;;;;20.42;43.20;96180.59;29394;412;64013;-71
2023/10/14 00:24:26;;;;;;;0.40;0.40;;;;;;;20.39;42.69;96179.38;29395;209;63004;-57
2023/10/14 00:24:58;;;;;;;0.57;0.57;;;;;;;20.39;43.11;96182.13;29394;341;64013;-69
2023/10/14 00:25:33;;;;;;;0.37;0.37;;;;;;;20.40;43.28;96173.50;29395;198;63004;-77
2023/10/14 00:26:06;;;;;;;0.40;0.40;;;;;;;20.39;43.65;96169.16;29395;235;63009;-77
2023/10/14 00:26:38;;;;;;;0.35;0.35;;;;;;;20.38;44.43;96175.03;29395;266;63018;-73
2023/10/14 00:27:10;;;;;;;0.35;0.35;;;;;;;20.36;43.45;96163.56;29395;212;63008;-75
2023/10/14 00:27:42;;;;;;;0.40;0.40;;;;;;;20.34;43.66;96179.66;29395;274;63004;-73
2023/10/14 00:28:19;;;;;;;0.30;0.30;;;;;;;20.33;43.40;96172.56;29395;211;63009;-69
2023/10/14 00:28:54;;;;;;;0.40;0.40;;;;;;;20.32;44.54;96168.22;29394;226;64009;-72
2023/10/14 00:29:29;;;;;;;0.40;0.40;;;;;;;20.34;44.32;96179.66;29395;222;63009;-70
2023/10/14 00:30:11;;;;;;;0.40;0.40;;;;;;;20.34;44.12;96179.66;29395;219;63005;-56
2023/10/14 00:30:55;;;;;;;0.40;0.40;;;;;;;20.34;44.75;96174.16;29395;216;63009;-67
2023/10/14 00:31:27;;;;;;;0.30;0.30;;;;;;;20.32;45.20;96182.00;29395;206;63005;-70
2023/10/14 00:31:59;;;;;;;0.40;0.40;;;;;;;20.31;45.14;96178.44;29395;297;63011;-58
2023/10/14 00:32:30;;;;;;;0.40;0.40;;;;;;;20.32;45.49;96165.47;29395;316;63000;-58
2023/10/14 00:33:06;;;;;;;0.30;0.30;;;;;;;20.32;45.77;96174.53;29394;196;64013;-73
2023/10/14 00:33:39;;;;;;;0.40;0.40;;;;;;;20.34;45.61;96174.16;29395;307;63000;-63
2023/10/14 00:34:14;;;;;;;0.40;0.40;;;;;;;20.39;46.68;96176.63;29395;276;63008;-73
2023/10/14 00:34:45;;;;;;;0.40;0.40;;;;;;;20.40;46.17;96173.50;29395;355;63004;-74
2023/10/14 00:35:19;;;;;;;0.40;0.40;;;;;;;20.40;46.20;96164.44;29395;223;63009;-75
2023/10/14 00:35:56;;;;;;;0.30;0.30;;;;;;;20.38;46.33;96169.50;29395;264;63018;-74
2023/10/14 00:36:31;;;;;;;0.30;0.30;;;;;;;20.36;47.02;96171.81;29395;228;63009;-73
2023/10/14 00:37:08;;;;;;;0.40;0.40;;;;;;;20.32;47.60;96166.25;29395;289;63005;-74
2023/10/14 00:37:40;;;;;;;0.40;0.40;;;;;;;20.30;46.95;96163.06;29395;221;63009;-73
2023/10/14 00:38:15;;;;;;;0.40;0.40;;;;;;;20.29;47.83;96168.97;29394;218;64009;-72
2023/10/14 00:38:57;;;;;;;0.40;0.40;;;;;;;20.32;47.67;96154.44;29395;272;63009;-58
2023/10/14 00:39:28;;;;;;;0.40;0.40;;;;;;;20.36;47.21;96166.31;29394;202;64009;-58
2023/10/14 00:40:11;;;;;;;0.40;0.40;;;;;;;20.37;46.90;96162.38;29395;264;63009;-78
2023/10/14 00:40:46;;;;;;;0.40;0.40;;;;;;;20.42;46.91;96170.34;29395;224;63004;-74
2023/10/14 00:41:20;;;;;;;0.30;0.30;;;;;;;20.42;46.77;96170.34;29395;229;63009;-73
2023/10/14 00:41:52;;;;;;;0.40;0.40;;;;;;;20.38;46.68;96152.97;29395;231;63004;-58
2023/10/14 00:42:23;;;;;;;0.40;0.40;;;;;;;20.36;46.91;96156.09;29395;197;63009;-76
2023/10/14 00:42:57;;;;;;;0.30;0.30;;;;;;;20.32;46.41;96155.25;29395;198;63005;-71
2023/10/14 00:43:29;;;;;;;0.30;0.30;;;;;;;20.31;47.11;96158.38;29395;203;63009;-71
2023/10/14 00:44:00;;;;;;;0.30;0.30;;;;;;;20.28;47.55;96159.91;29395;291;63005;-59
2023/10/14 00:44:33;;;;;;;0.40;0.40;;;;;;;20.32;47.18;96151.69;29394;243;64013;-57
2023/10/14 00:45:09;;;;;;;0.40;0.40;;;;;;;20.33;47.08;96139.50;29395;198;63005;-59
2023/10/14 00:45:44;;;;;;;0.40;0.40;;;;;;;20.33;46.97;96150.53;29395;214;63009;-59
2023/10/14 00:46:17;;;;;;;0.30;0.30;;;;;;;20.33;46.74;96139.50;29395;199;63005;-60
2023/10/14 00:46:48;;;;;;;0.40;0.40;;;;;;;20.33;46.99;96145.81;29395;268;63009;-59
2023/10/14 00:47:24;;;;;;;0.40;0.40;;;;;;;20.31;47.11;96152.84;29395;226;63004;-60
2023/10/14 00:47:59;;;;;;;0.40;0.40;;;;;;;20.28;46.63;96156.34;29395;197;63009;-69
2023/10/14 00:48:34;;;;;;;0.30;0.30;;;;;;;20.30;46.99;96157.56;29394;244;64009;-74
2023/10/14 00:49:10;;;;;;;0.30;0.30;;;;;;;20.28;46.90;96150.84;29395;356;63008;-73
2023/10/14 00:49:42;;;;;;;0.32;0.32;;;;;;;20.25;46.59;96149.63;29395;244;63004;-59
2023/10/14 00:51:19;;;;;;;0.30;0.30;;;;;;;20.21;46.81;96151.53;29395;231;63005;-75
2023/10/14 00:51:59;;;;;;;0.40;0.40;;;;;;;20.21;47.08;96159.00;29395;242;63009;-58
2023/10/14 00:52:32;;;;;;;0.40;0.40;;;;;;;20.21;47.15;96153.50;29395;213;63000;-58
2023/10/14 00:53:05;;;;;;;0.40;0.40;;;;;;;20.20;46.92;96162.94;29394;243;64013;-56
2023/10/14 00:53:39;;;;;;;0.32;0.32;;;;;;;20.18;47.06;96165.25;29394;325;64009;-60
2023/10/14 00:54:17;;;;;;;0.40;0.40;;;;;;;20.20;47.98;96162.94;29395;231;63009;-58
2023/10/14 00:54:58;;;;;;;0.40;0.40;;;;;;;20.24;48.00;96169.28;29395;233;63017;-69
2023/10/14 00:55:51;;;;;;;0.40;0.40;;;;;;;20.30;48.49;96162.28;29417;210;63009;-58
2023/10/14 00:56:30;;;;;;;0.40;0.40;;;;;;;20.27;48.53;96154.75;29395;209;63004;-59
2023/10/14 00:57:21;;;;;;;0.40;0.40;;;;;;;20.23;48.62;96156.66;29395;253;63008;-72
2023/10/14 00:57:55;;;;;;;0.40;0.40;;;;;;;20.20;49.02;96165.69;29395;219;63005;-57
2023/10/14 00:58:29;;;;;;;0.30;0.30;;;;;;;20.16;49.26;96164.84;29395;204;63009;-74
2023/10/14 00:59:04;;;;;;;0.40;0.40;;;;;;;20.11;50.04;96176.97;29394;217;64009;-59
2023/10/14 00:59:37;;;;;;;0.30;0.30;;;;;;;20.12;50.28;96172.25;29395;246;63009;-73
2023/10/14 01:00:11;;;;;;;0.40;0.40;;;;;;;20.14;50.67;96176.22;29395;196;63005;-57
2023/10/14 01:00:57;;;;;;;0.50;0.50;;;;;;;20.24;51.67;96185.81;29395;239;63009;-68
2023/10/14 01:01:32;;;;;;;0.70;0.70;;;;;;;20.30;51.82;96184.31;29395;199;63013;-70
2023/10/14 01:02:07;;;;;;;0.40;0.40;;;;;;;20.33;51.78;96178.06;29394;212;64013;-76
2023/10/14 01:02:38;;;;;;;0.40;0.40;;;;;;;20.29;51.29;96166.22;29395;221;63004;-72
2023/10/14 01:03:15;;;;;;;0.40;0.40;;;;;;;20.23;53.10;96178.72;29395;245;63009;-58
2023/10/14 01:03:50;;;;;;;0.40;0.40;;;;;;;20.21;52.56;96181.03;29395;227;63007;-58
2023/10/14 01:04:31;;;;;;;0.40;0.40;;;;;;;20.19;52.99;96184.16;29394;211;64013;-62
2023/10/14 01:05:07;;;;;;;;;;;;;;;20.21;54.04;96181.84;29996;983;6000;-58
2023/10/14 01:05:39;;;;;;;0.50;0.50;;;;;;;20.18;53.30;96187.28;29400;285;63005;-75
2023/10/14 01:07:13;;;;;;;0.40;0.40;;;;;;;20.00;53.87;96176.03;29394;231;64009;-70
2023/10/14 01:07:47;;;;;;;0.50;0.50;;;;;;;19.95;55.63;96179.91;29395;230;63009;-59
2023/10/14 01:08:22;;;;;;;0.40;0.40;;;;;;;19.93;55.04;96182.22;29395;227;63012;-70
2023/10/14 01:08:54;;;;;;;0.40;0.40;;;;;;;19.93;54.90;96186.94;29395;211;63009;-69
2023/10/14 01:10:24;;;;;;;0.30;0.30;;;;;;;19.92;56.55;96186.12;29417;253;63004;-72
2023/10/14 01:10:58;;;;;;;0.40;0.40;;;;;;;19.86;55.63;96167.53;29394;219;64009;-57
2023/10/14 01:11:35;;;;;;;0.40;0.40;;;;;;;19.87;57.32;96186.44;29395;222;63009;-73
2023/10/14 01:13:14;;;;;;;0.32;0.32;;;;;;;19.77;56.64;96178.81;29417;238;63009;-56
2023/10/14 01:13:45;;;;;;;0.40;0.40;;;;;;;19.76;56.97;96185.47;29395;249;63005;-57
2023/10/14 01:14:23;;;;;;;0.60;0.60;;;;;;;19.79;58.41;96181.19;29395;255;63005;-59
2023/10/14 01:15:10;;;;;;;4.35;3.97;;;;;;;19.85;57.88;96180.50;29395;238;63005;-58
2023/10/14 01:15:48;;;;;;;0.40;0.40;;;;;;;19.80;57.70;96169.81;29394;222;64013;-59
2023/10/14 01:16:24;;;;;;;0.35;0.35;;;;;;;19.70;58.18;96176.75;29395;219;63005;-68
2023/10/14 01:16:57;;;;;;;0.40;0.40;;;;;;;19.62;58.14;96172.31;29395;224;63009;-67
2023/10/14 01:17:31;;;;;;;0.40;0.40;;;;;;;19.60;57.72;96168.31;29395;212;63004;-67
2023/10/14 01:18:04;;;;;;;0.40;0.40;;;;;;;19.62;58.13;96179.75;29395;229;63009;-58
2023/10/14 01:18:38;;;;;;;0.50;0.50;;;;;;;19.67;58.59;96174.75;29395;246;63004;-58
2023/10/14 01:19:11;;;;;;;0.37;0.37;;;;;;;19.64;58.43;96171.94;29394;249;64013;-59
2023/10/14 01:19:43;;;;;;;0.40;0.40;;;;;;;19.60;58.52;96184.84;29394;225;64008;-59
2023/10/14 01:21:07;;;;;;;0.40;0.40;;;;;;;19.51;60.29;96179.56;29417;213;63018;-64
2023/10/14 01:21:41;;;;;;;0.47;0.47;;;;;;;19.52;59.58;96183.13;29395;219;63009;-61
2023/10/14 01:22:13;;;;;;;0.40;0.40;;;;;;;19.47;59.15;96180.66;29395;225;63005;-68
2023/10/14 01:22:54;;;;;;;0.30;0.30;;;;;;;19.47;59.24;96186.16;29395;214;63009;-68
2023/10/14 01:23:26;;;;;;;0.30;0.30;;;;;;;19.41;60.71;96186.44;29395;229;63005;-59
2023/10/14 01:24:00;;;;;;;0.30;0.30;;;;;;;19.38;59.56;96187.22;29395;216;63009;-67
2023/10/14 01:24:38;;;;;;;0.47;0.47;;;;;;;19.46;60.17;96177.09;29394;243;63999;-59
2023/10/14 01:25:15;;;;;;;0.40;0.40;;;;;;;19.42;59.71;96185.28;29395;228;63009;-59
2023/10/14 01:25:51;;;;;;;0.40;0.40;;;;;;;19.38;59.45;96178.16;29395;261;63014;-60
2023/10/14 01:26:24;;;;;;;0.40;0.40;;;;;;;19.35;59.90;96174.19;29395;289;63009;-61
2023/10/14 01:28:15;;;;;;;0.40;0.40;;;;;;;19.31;60.90;96172.53;87952;212;137000;-68
2023/10/14 01:28:59;;;;;;;0.40;0.40;;;;;;;19.30;60.91;96177.25;29394;276;64009;-77
2023/10/14 01:29:31;;;;;;;0.40;0.40;;;;;;;19.28;60.86;96178.75;29395;255;63005;-58
2023/10/14 01:30:10;;;;;;;0.40;0.40;;;;;;;19.32;61.24;96190.63;29394;222;64013;-57
2023/10/14 01:32:42;;;;;;;0.40;0.40;;;;;;;19.27;62.19;96182.66;29394;197;64009;-59
2023/10/14 01:33:16;;;;;;;0.40;0.40;;;;;;;19.23;60.92;96181.81;29395;297;63009;-66
2023/10/14 01:33:52;;;;;;;0.40;0.40;;;;;;;19.28;61.88;96182.31;29395;212;63004;-67
2023/10/14 01:34:30;;;;;;;0.40;0.40;;;;;;;19.23;60.97;96187.31;29395;230;63008;-59
2023/10/14 01:35:54;;;;;;;0.40;0.40;;;;;;;19.17;61.53;96189.56;29394;245;64014;-60
2023/10/14 01:36:32;;;;;;;0.30;0.30;;;;;;;19.14;60.87;96195.78;29394;219;64009;-59
2023/10/14 01:37:13;;;;;;;0.40;0.40;;;;;;;19.16;62.77;96198.97;29395;199;63026;-58
2023/10/14 01:37:45;;;;;;;0.40;0.40;;;;;;;19.18;62.16;96196.66;29417;306;63005;-61
2023/10/14 01:38:16;;;;;;;0.40;0.40;;;;;;;19.25;62.33;96193.25;29395;204;63009;-71
2023/10/14 01:38:59;;;;;;;0.40;0.40;;;;;;;19.21;62.31;96193.19;29395;222;63004;-61
2023/10/14 01:39:33;;;;;;;0.40;0.40;;;;;;;19.16;62.97;96192.69;29394;235;64005;-58
2023/10/14 01:41:04;;;;;;;0.40;0.40;;;;;;;19.14;62.54;96195.78;29395;249;63008;-61
2023/10/14 01:41:37;;;;;;;0.40;0.40;;;;;;;19.19;62.42;96189.19;29395;231;63004;-61
2023/10/14 01:42:12;;;;;;;0.40;0.40;;;;;;;19.17;62.68;96206.06;29394;241;64013;-56
2023/10/14 01:42:43;;;;;;;0.40;0.40;;;;;;;19.16;62.73;96193.47;29395;229;63005;-63
2023/10/14 01:43:23;;;;;;;0.47;0.47;;;;;;;19.11;63.58;96192.97;29395;226;63009;-69
2023/10/14 01:43:57;;;;;;;0.40;0.40;;;;;;;19.05;62.91;96189.75;29439;253;63005;-70
2023/10/14 01:44:29;;;;;;;0.40;0.40;;;;;;;18.99;63.71;96188.44;29395;224;63009;-74
2023/10/14 01:45:00;;;;;;;0.60;0.60;;;;;;;18.96;63.26;96200.97;29395;200;63005;-60
2023/10/14 01:45:39;;;;;;;0.40;0.40;;;;;;;18.98;63.46;96204.16;29395;199;63005;-57
2023/10/14 01:46:11;;;;;;;0.40;0.40;;;;;;;18.99;64.01;96193.94;29394;226;64009;-78
2023/10/14 01:46:54;;;;;;;0.50;0.50;;;;;;;18.93;64.41;96198.16;29395;239;63009;-59
2023/10/14 01:47:26;;;;;;;0.37;0.37;;;;;;;18.95;63.61;96204.06;29395;222;63004;-58
2023/10/14 01:48:14;;;;;;;0.40;0.40;;;;;;;18.95;64.21;96198.59;29395;222;63009;-58
2023/10/14 01:48:51;;;;;;;0.30;0.30;;;;;;;18.90;63.36;96205.16;29394;287;64008;-66
2023/10/14 01:49:25;;;;;;;0.40;0.40;;;;;;;18.90;63.32;96204.38;29395;228;63009;-78
2023/10/14 01:49:56;;;;;;;0.40;0.40;;;;;;;19.02;63.77;96206.97;29395;210;63005;-59
2023/10/14 01:50:27;;;;;;;0.40;0.40;;;;;;;19.02;63.58;96204.22;29395;219;63009;-62
2023/10/14 01:50:59;;;;;;;0.40;0.40;;;;;;;18.98;63.44;96200.59;29395;216;63005;-61
2023/10/14 01:51:33;;;;;;;0.40;0.40;;;;;;;18.96;63.89;96205.66;29394;218;64013;-59
2023/10/14 01:52:14;;;;;;;1.17;1.17;;;;;;;18.95;64.21;96204.06;29395;229;63018;-68
2023/10/14 01:52:46;;;;;;;0.40;0.40;;;;;;;18.89;64.55;96195.31;29417;218;63009;-58
2023/10/14 01:53:18;;;;;;;0.40;0.40;;;;;;;18.87;64.58;96197.66;29395;223;63005;-58
2023/10/14 01:53:51;;;;;;;0.30;0.30;;;;;;;18.89;64.32;96197.28;29395;228;63009;-66
2023/10/14 01:54:24;;;;;;;0.40;0.40;;;;;;;18.88;64.07;96198.44;29395;212;63009;-59
2023/10/14 01:54:56;;;;;;;0.40;0.40;;;;;;;18.86;64.20;96195.25;29395;222;63017;-58
2023/10/14 01:55:27;;;;;;;0.40;0.40;;;;;;;18.84;64.18;96186.56;29395;268;63004;-66
2023/10/14 01:56:01;;;;;;;0.40;0.40;;;;;;;18.82;64.27;96191.63;29395;255;63008;-60
2023/10/14 01:56:32;;;;;;;0.40;0.40;;;;;;;18.79;65.48;96189.63;29394;238;64008;-60
2023/10/14 01:57:05;;;;;;;0.40;0.40;;;;;;;18.73;64.51;96200.91;29395;280;63009;-61
2023/10/14 01:57:38;;;;;;;0.40;0.40;;;;;;;18.73;64.62;96192.66;29395;217;63005;-60
2023/10/14 01:58:12;;;;;;;0.40;0.40;;;;;;;18.73;64.32;96200.91;29395;264;63009;-58
2023/10/14 01:58:45;;;;;;;0.40;0.40;;;;;;;18.73;64.68;96200.91;29395;213;63005;-62
2023/10/14 01:59:16;;;;;;;0.40;0.40;;;;;;;18.86;64.88;96195.25;29395;201;63009;-73
2023/10/14 01:59:47;;;;;;;0.43;0.43;;;;;;;18.91;64.76;96203.22;29395;246;63005;-64
2023/10/14 02:00:25;;;;;;;0.40;0.40;;;;;;;18.88;64.02;96203.94;29395;243;63009;-60
2023/10/14 02:01:05;;;;;;;0.70;0.70;;;;;;;18.92;64.68;96207.56;29395;228;63004;-56
2023/10/14 02:01:41;;;;;;;0.40;0.40;;;;;;;18.93;64.38;96200.91;29394;225;64013;-59
2023/10/14 02:02:19;;;;;;;0.40;0.40;;;;;;;18.93;64.45;96192.66;29395;256;63004;-60
2023/10/14 02:03:02;;;;;;;0.30;0.30;;;;;;;18.94;64.62;96197.00;29395;208;63009;-60
2023/10/14 02:03:40;;;;;;;0.40;0.40;;;;;;;18.92;64.27;96186.34;29395;227;63004;-59
2023/10/14 02:04:14;;;;;;;0.32;0.32;;;;;;;18.88;64.33;96187.44;29395;202;63008;-59
2023/10/14 02:04:47;;;;;;;0.40;0.40;;;;;;;18.83;64.39;96182.22;29395;203;63005;-60
2023/10/14 02:05:21;;;;;;;0.30;0.30;;;;;;;18.82;64.62;96197.13;29395;237;63009;-64
2023/10/14 02:05:52;;;;;;;0.43;0.43;;;;;;;18.78;65.26;96188.81;29395;209;63005;-60
2023/10/14 02:06:30;;;;;;;0.40;0.40;;;;;;;18.75;64.60;96190.34;29395;237;63009;-60
2023/10/14 02:07:17;;;;;;;0.73;0.73;;;;;;;18.81;65.18;96192.78;29394;239;64009;-69
2023/10/14 02:07:49;;;;;;;1.10;0.62;;;;;;;18.85;65.22;96183.47;29395;255;63009;-59
2023/10/14 02:08:23;;;;;;;0.40;0.40;;;;;;;18.83;65.29;96179.47;29395;219;63005;-57
2023/10/14 02:08:57;;;;;;;0.40;0.40;;;;;;;18.80;65.51;96180.22;29395;233;63009;-60
2023/10/14 02:09:31;;;;;;;0.60;0.60;;;;;;;18.78;64.65;96182.53;29395;270;63004;-59
2023/10/14 02:10:06;;;;;;;0.62;0.62;;;;;;;18.90;65.30;96174.13;29395;221;63009;-59
2023/10/14 02:10:37;;;;;;;0.40;0.40;;;;;;;18.85;64.58;96185.41;29395;196;63004;-59
2023/10/14 02:11:08;;;;;;;0.40;0.40;;;;;;;18.81;64.90;96173.56;29395;223;63008;-58
2023/10/14 02:11:40;;;;;;;0.40;0.40;;;;;;;18.79;65.46;96178.62;29395;233;63004;-60
2023/10/14 02:12:12;;;;;;;0.40;0.40;;;;;;;18.73;64.89;96165.16;29394;216;64005;-59
2023/10/14 02:12:43;;;;;;;0.40;0.40;;;;;;;18.71;65.20;96183.97;29395;218;63005;-60
2023/10/14 02:13:15;;;;;;;0.40;0.40;;;;;;;18.81;65.51;96181.81;29395;285;63009;-56
2023/10/14 02:13:51;;;;;;;0.40;0.40;;;;;;;18.78;65.73;96177.03;29395;202;63005;-71
2023/10/14 02:14:22;;;;;;;0.88;0.88;;;;;;;18.71;65.25;96167.47;29394;238;64013;-59
2023/10/14 02:14:57;;;;;;;0.40;0.40;;;;;;;18.66;65.53;96176.03;29395;223;63005;-59
2023/10/14 02:15:29;;;;;;;0.40;0.40;;;;;;;18.62;65.64;96168.88;29395;214;63009;-73
2023/10/14 02:16:09;;;;;;;0.30;0.30;;;;;;;18.58;65.36;96168.78;29395;202;63004;-72
2023/10/14 02:16:44;;;;;;;0.40;0.40;;;;;;;18.56;65.44;96171.09;29395;222;63009;-67
2023/10/14 02:17:16;;;;;;;0.40;0.40;;;;;;;18.54;65.72;96165.16;29394;225;64009;-57
2023/10/14 02:17:48;;;;;;;0.40;0.40;;;;;;;18.54;66.68;96178.09;29395;217;63008;-69
2023/10/14 02:18:21;;;;;;;0.40;0.40;;;;;;;18.52;65.58;96164.72;29395;217;63004;-58
2023/10/14 02:19:17;;;;;;;0.40;0.40;;;;;;;18.53;65.92;96171.81;29395;196;63008;-58
2023/10/14 02:19:51;;;;;;;0.40;0.40;;;;;;;18.77;65.71;96189.19;29395;247;63001;-57
2023/10/14 02:20:37;;;;;;;0.47;0.47;;;;;;;18.87;65.38;96175.66;29395;197;63009;-59
2023/10/14 02:21:12;;;;;;;0.40;0.40;;;;;;;18.86;65.16;96173.25;29395;217;63005;-68
2023/10/14 02:21:57;;;;;;;0.40;0.40;;;;;;;18.74;66.37;96188.75;29394;209;64013;-59
2023/10/14 02:22:28;;;;;;;0.40;0.40;;;;;;;18.66;65.90;96176.03;29395;210;63005;-67
2023/10/14 02:23:00;;;;;;;0.40;0.40;;;;;;;18.62;65.61;96177.91;29395;198;63009;-59
2023/10/14 02:23:45;;;;;;;0.40;0.40;;;;;;;18.57;65.66;96178.19;29395;196;63004;-59
2023/10/14 02:24:18;;;;;;;0.37;0.37;;;;;;;18.55;66.47;96172.25;29394;206;64013;-70
2023/10/14 02:24:55;;;;;;;0.40;0.40;;;;;;;18.57;65.90;96156.19;29395;263;63004;-57
2023/10/14 02:25:27;;;;;;;0.40;0.40;;;;;;;18.61;66.27;96162.59;29395;295;63008;-59
2023/10/14 02:26:00;;;;;;;0.40;0.40;;;;;;;18.62;66.09;96163.38;29395;330;63004;-59
2023/10/14 02:26:33;;;;;;;0.40;0.40;;;;;;;18.60;66.02;96166.50;29395;269;63009;-70
2023/10/14 02:27:11;;;;;;;0.40;0.40;;;;;;;18.57;66.26;96164.44;29395;252;63005;-59
2023/10/14 02:27:43;;;;;;;0.40;0.40;;;;;;;18.57;66.19;96167.19;29395;197;63009;-58
2023/10/14 02:28:15;;;;;;;0.40;0.40;;;;;;;18.57;66.00;96167.19;29395;202;63005;-60
2023/10/14 02:28:48;;;;;;;0.37;0.37;;;;;;;18.60;66.23;96149.22;29395;276;63009;-60
2023/10/14 02:29:19;;;;;;;0.40;0.40;;;;;;;18.58;65.80;96152.28;29394;292;64009;-69
2023/10/14 02:29:51;;;;;;;0.40;0.40;;;;;;;18.60;65.85;96154.72;29395;256;63009;-59
2023/10/14 02:30:23;;;;;;;0.40;0.40;;;;;;;18.60;65.86;96149.22;29395;243;63004;-60
2023/10/14 02:30:59;;;;;;;0.40;0.40;;;;;;;18.58;66.17;96146.78;29395;225;63009;-60
2023/10/14 02:31:35;;;;;;;0.40;0.40;;;;;;;18.56;66.06;96154.59;29395;214;63004;-72
2023/10/14 02:32:06;;;;;;;0.30;0.30;;;;;;;18.56;66.42;96154.59;29395;212;63009;-75
2023/10/14 02:32:38;;;;;;;0.50;0.50;;;;;;;18.58;66.80;96163.28;29394;211;64009;-71
2023/10/14 02:33:10;;;;;;;0.40;0.40;;;;;;;18.60;65.94;96155.50;29395;204;63008;-57
2023/10/14 02:33:45;;;;;;;0.40;0.40;;;;;;;18.62;65.94;96152.41;29395;218;63018;-68
2023/10/14 02:34:18;;;;;;;0.40;0.40;;;;;;;18.61;66.15;96157.09;29395;197;63009;-60
2023/10/14 02:34:50;;;;;;;0.40;0.40;;;;;;;18.61;65.92;96142.56;29394;197;64009;-71
2023/10/14 02:35:24;;;;;;;0.40;0.40;;;;;;;18.59;66.21;96148.38;29395;227;63009;-68
2023/10/14 02:35:59;;;;;;;0.40;0.40;;;;;;;18.56;66.39;96146.34;29395;216;63005;-74
2023/10/14 02:36:35;;;;;;;0.40;0.40;;;;;;;18.57;66.36;96145.22;29395;214;63026;-58
2023/10/14 02:37:07;;;;;;;0.40;0.40;;;;;;;18.58;66.58;96135.81;29395;226;63005;-61
2023/10/14 02:37:38;;;;;;;0.40;0.40;;;;;;;18.55;67.18;96138.47;29394;249;64005;-59
2023/10/14 02:38:10;;;;;;;0.40;0.40;;;;;;;18.54;66.28;96140.44;29395;218;63004;-59
2023/10/14 02:38:56;;;;;;;0.40;0.40;;;;;;;18.53;65.94;96143.53;29395;227;63009;-59
2023/10/14 02:39:27;;;;;;;0.40;0.40;;;;;;;18.51;66.62;96138.41;29394;202;64009;-59
2023/10/14 02:39:59;;;;;;;0.40;0.40;;;;;;;18.51;66.44;96140.34;29395;223;63009;-60
2023/10/14 02:40:30;;;;;;;0.40;0.40;;;;;;;18.49;66.13;96142.66;29395;229;63004;-57
2023/10/14 02:41:04;;;;;;;0.40;0.40;;;;;;;18.55;66.98;96133.00;29395;198;63025;-60
2023/10/14 02:41:35;;;;;;;0.40;0.40;;;;;;;18.56;66.12;96121.63;29395;254;63005;-72
2023/10/14 02:42:07;;;;;;;0.30;0.30;;;;;;;18.57;66.27;96123.22;29395;229;63009;-60
2023/10/14 02:42:41;;;;;;;0.40;0.40;;;;;;;18.57;66.49;96117.72;29395;223;63005;-58
2023/10/14 02:43:16;;;;;;;0.65;0.65;;;;;;;18.58;66.20;96124.03;29395;238;63009;-57
2023/10/14 02:43:49;;;;;;;0.90;0.90;;;;;;;18.70;66.13;96132.94;29395;226;63005;-57
2023/10/14 02:44:27;;;;;;;0.40;0.40;;;;;;;18.72;65.79;96119.59;29395;270;63009;-68
2023/10/14 02:45:03;;;;;;;0.30;0.30;;;;;;;18.69;65.59;96125.84;29394;223;63997;-74
2023/10/14 02:45:40;;;;;;;0.47;0.47;;;;;;;18.70;66.25;96121.94;29395;235;63009;-55
2023/10/14 02:46:11;;;;;;;0.40;0.40;;;;;;;18.82;65.94;96117.44;29395;217;63004;-59
2023/10/14 02:46:45;;;;;;;0.30;0.30;;;;;;;18.82;66.07;96117.44;29395;208;63009;-59
2023/10/14 02:47:19;;;;;;;0.30;0.30;;;;;;;18.74;65.76;96117.28;29395;197;63004;-70
2023/10/14 02:47:51;;;;;;;4.68;3.22;;;;;;;18.83;66.04;96116.28;29394;216;64013;-57
2023/10/14 02:48:23;;;;;;;0.32;0.32;;;;;;;18.79;65.66;96118.94;29395;233;63004;-69
2023/10/14 02:48:55;;;;;;;0.50;0.50;;;;;;;18.81;65.72;96105.63;29395;255;63009;-59
2023/10/14 02:49:27;;;;;;;0.40;0.40;;;;;;;18.83;65.28;96113.53;29395;216;63005;-60
2023/10/14 02:50:11;;;;;;;0.37;0.37;;;;;;;18.80;65.47;96106.00;29395;200;63009;-59
2023/10/14 02:50:50;;;;;;;0.30;0.30;;;;;;;18.80;65.44;96108.75;29394;211;64009;-61
2023/10/14 02:51:32;;;;;;;0.30;0.30;;;;;;;18.77;65.55;96109.47;29395;213;63009;-59
2023/10/14 02:52:10;;;;;;;0.40;0.40;;;;;;;18.83;65.38;96103.31;29395;198;63005;-58
2023/10/14 02:52:49;;;;;;;0.55;0.55;;;;;;;18.83;65.34;96103.31;29394;198;64013;-59
2023/10/14 02:53:27;;;;;;;0.50;0.50;;;;;;;18.82;65.51;96106.44;29395;269;63004;-59
2023/10/14 02:54:04;;;;;;;0.50;0.50;;;;;;;18.80;65.66;96120.53;29395;208;63009;-60
2023/10/14 02:54:41;;;;;;;0.65;0.65;;;;;;;18.80;65.97;96104.06;29395;212;63017;-74
2023/10/14 02:55:22;;;;;;;0.40;0.40;;;;;;;18.75;65.33;96105.13;29394;224;64013;-59
2023/10/14 02:55:57;;;;;;;0.37;0.37;;;;;;;18.84;65.22;96098.63;29417;213;63017;-59
2023/10/14 02:56:33;;;;;;;0.40;0.40;;;;;;;18.85;65.21;96095.50;29395;276;63027;-73